Time;durP1;ratioP1;P1;durP2;ratioP2;P2;SDS_P1;SDS_P2;PMS_P1;PMS_P2;Temp;Humidity;BMP_temperature;BMP_pressure;BME280_temperature;BME280_humidity;BME280_pressure;Samples;Min_cycle;Max_cycle;Signal;HPM_P1;HPM_P2
2021/05/27 00:06:54;;;;;;;3.10;1.30;;;;;;;;;;5210594;23;20498;-94
2021/05/27 00:17:18;;;;;;;3.47;1.40;;;;;;;;;;5522035;23;20490;-94
2021/05/27 00:31:33;;;;;;;4.13;1.60;;;;;;;;;;4989203;23;20503;-93
2021/05/27 00:34:41;;;;;;;5.43;1.40;;;;;;;;;;4952325;29;20490;-94
2021/05/27 00:54:25;;;;;;;1.70;1.60;;;;;;;;;;891329;23;20654;31
2021/05/27 00:57:34;;;;;;;;;;;;;;;;;;;;;
2021/05/27 01:13:24;;;;;;;1.87;1.70;;;;;;;;;;5230985;23;20483;-95
2021/05/27 01:28:43;;;;;;;2.67;2.13;;;;;;;;;;5750872;23;20462;-94
2021/05/27 01:31:11;;;;;;;3.37;2.10;;;;;;;;;;5766542;23;20461;-96
2021/05/27 01:36:24;;;;;;;2.80;1.57;;;;;;;;;;5938298;23;21728;-94
2021/05/27 01:41:23;;;;;;;1.40;1.30;;;;;;;;;;5406719;23;20498;-92
2021/05/27 04:25:01;;;;;;;1.70;1.33;;;7.90;99.90;;;;;;5094972;23;20490;31
2021/05/27 04:33:08;;;;;;;3.23;2.10;;;8.00;99.90;;;;;;5097441;23;21213;-93
2021/05/27 04:35:37;;;;;;;1.97;1.87;;;8.00;99.90;;;;;;4989221;28;20544;-91
2021/05/27 05:00:24;;;;;;;2.63;2.10;;;;;;;;;;5558112;23;20492;-93
2021/05/27 05:23:51;;;;;;;2.40;2.20;;;;;;;;;;5316842;23;20542;-93
2021/05/27 05:40:51;;;;;;;3.23;1.50;;;;;;;;;;5120418;23;20495;-94
2021/05/27 05:43:21;;;;;;;3.97;1.80;;;;;;;;;;5074403;23;20516;-94
2021/05/27 05:45:54;;;;;;;2.13;1.80;;;;;;;;;;5027654;28;20463;-93
2021/05/27 05:50:57;;;;;;;4.20;1.70;;;;;;;;;;5193446;23;20496;-93
2021/05/27 05:53:24;;;;;;;3.37;1.60;;;10.90;99.90;;;;;;5020316;28;20470;-93
2021/05/27 05:55:55;;;;;;;2.40;0.63;;;11.20;99.90;;;;;;5015694;28;20452;-92
2021/05/27 05:58:23;;;;;;;1.70;1.60;;;;;;;;;;4975638;28;20458;-93
2021/05/27 06:00:51;;;;;;;2.40;1.20;;;;;;;;;;4989357;23;20485;-92
2021/05/27 06:03:18;;;;;;;2.57;1.53;;;;;;;;;;5022462;28;20460;-91
2021/05/27 06:05:44;;;;;;;1.30;1.10;;;;;;;;;;5019653;28;20820;-93
2021/05/27 06:08:12;;;;;;;1.73;1.20;;;;;;;;;;5020645;28;20991;-92
2021/05/27 06:10:39;;;;;;;1.73;1.40;;;;;;;;;;5017717;28;20939;-94
2021/05/27 06:13:09;;;;;;;1.47;1.30;;;;;;;;;;5019878;28;20944;-95
2021/05/27 06:15:37;;;;;;;1.90;0.90;;;11.50;99.90;;;;;;5003267;28;20554;-93
2021/05/27 06:18:04;;;;;;;1.27;0.90;;;;;;;;;;5003388;28;20815;-95
2021/05/27 06:20:34;;;;;;;1.40;1.13;;;;;;;;;;5003903;28;20521;-94
2021/05/27 06:23:01;;;;;;;1.40;1.23;;;;;;;;;;5003734;28;20487;-91
2021/05/27 06:25:30;;;;;;;3.43;1.13;;;;;;;;;;5002654;28;20460;-93
2021/05/27 06:30:39;;;;;;;3.03;1.27;;;;;;;;;;5029653;23;20523;-96
2021/05/27 06:33:11;;;;;;;1.70;1.00;;;;;;;;;;4940482;29;20466;-93
2021/05/27 06:35:41;;;;;;;2.53;1.23;;;;;;;;;;4940536;29;20559;-94
2021/05/27 06:38:09;;;;;;;2.30;1.20;;;;;;;;;;4943024;29;20463;-92
2021/05/27 06:46:00;;;;;;;2.03;1.13;;;11.90;99.90;;;;;;5021723;28;20437;-91
2021/05/27 06:48:26;;;;;;;1.30;1.17;;;;;;;;;;5013764;28;20895;-89
2021/05/27 06:50:53;;;;;;;2.90;1.27;;;;;;;;;;5018404;28;20463;-89
2021/05/27 06:53:20;;;;;;;1.23;1.13;;;;;;;;;;5010690;28;20453;-91
2021/05/27 06:55:48;;;;;;;1.53;1.10;;;13.20;99.90;;;;;;5012342;28;20499;-93
2021/05/27 06:58:17;;;;;;;0.80;0.80;;;;;;;;;;5009001;28;20437;-94
2021/05/27 07:00:44;;;;;;;1.10;1.00;;;;;;;;;;5010737;28;20450;-92
2021/05/27 07:03:12;;;;;;;3.00;1.10;;;;;;;;;;4995177;28;20449;-95
2021/05/27 07:05:39;;;;;;;1.63;1.20;;;;;;;;;;4997739;28;20488;-94
2021/05/27 07:08:07;;;;;;;1.60;1.30;;;;;;;;;;4996835;28;20921;-94
2021/05/27 07:10:33;;;;;;;0.93;0.90;;;;;;;;;;5008049;28;20523;-89
2021/05/27 07:13:02;;;;;;;1.10;1.00;;;12.30;99.90;;;;;;5014920;28;20471;-94
2021/05/27 07:15:29;;;;;;;2.20;1.07;;;;;;;;;;4993851;28;20473;-89
2021/05/27 07:17:56;;;;;;;2.07;0.90;;;;;;;;;;4994079;28;20461;-89
2021/05/27 07:20:25;;;;;;;1.17;0.90;;;11.60;99.90;;;;;;4995655;28;20459;-92
2021/05/27 07:22:52;;;;;;;2.10;1.00;;;;;;;;;;4987087;28;20462;-94
2021/05/27 07:25:20;;;;;;;1.40;0.73;;;;;;;;;;4995703;28;20469;-93
2021/05/27 07:27:48;;;;;;;1.00;0.87;;;;;;;;;;4993332;28;20457;-87
2021/05/27 07:30:15;;;;;;;2.13;1.20;;;;;;;;;;4995081;28;20437;-95
2021/05/27 07:32:41;;;;;;;2.00;1.40;;;;;;;;;;4994731;28;20465;-93
2021/05/27 07:35:08;;;;;;;2.53;1.07;;;13.70;99.90;;;;;;4995235;28;20434;-90
2021/05/27 07:37:36;;;;;;;3.57;1.40;;;;;;;;;;4994561;28;20453;-91
2021/05/27 07:40:03;;;;;;;2.63;1.20;;;12.20;99.90;;;;;;4995872;28;20456;-91
2021/05/27 07:42:30;;;;;;;1.87;1.20;;;;;;;;;;4994238;28;20491;-94
2021/05/27 07:44:57;;;;;;;4.30;1.43;;;;;;;;;;4992291;28;20469;-93
2021/05/27 07:47:23;;;;;;;2.43;1.17;;;;;;;;;;4991956;28;21151;-92
2021/05/27 07:49:51;;;;;;;2.30;1.33;;;;;;;;;;4994734;28;20547;-93
2021/05/27 07:52:18;;;;;;;1.17;0.87;;;;;;;;;;4996826;28;20481;-90
2021/05/27 07:54:48;;;;;;;2.60;1.20;;;;;;;;;;4998209;28;20460;-90
2021/05/27 07:57:15;;;;;;;1.27;1.00;;;;;;;;;;4996764;28;20448;-91
2021/05/27 07:59:41;;;;;;;0.83;0.80;;;;;;;;;;4994058;28;20794;-92
2021/05/27 08:02:09;;;;;;;1.50;1.23;;;14.90;99.90;;;;;;5001258;28;20449;-92
2021/05/27 08:04:36;;;;;;;3.00;1.10;;;;;;;;;;4996660;28;20449;-91
2021/05/27 08:07:03;;;;;;;2.93;1.20;;;;;;;;;;4997061;28;20814;-89
2021/05/27 08:09:29;;;;;;;2.90;1.30;;;;;;;;;;4995841;28;20503;-86
2021/05/27 08:11:56;;;;;;;1.00;1.00;;;15.00;99.90;;;;;;4997115;28;20503;-85
2021/05/27 08:14:23;;;;;;;2.60;1.20;;;;;;;;;;4994285;28;20536;-85
2021/05/27 08:16:50;;;;;;;1.60;1.40;;;;;;;;;;4993323;28;20867;-89
2021/05/27 08:19:16;;;;;;;3.13;1.23;;;;;;;;;;5001250;28;20453;-87
2021/05/27 08:21:43;;;;;;;1.70;1.07;;;;;;;;;;5001100;28;20453;-85
2021/05/27 08:24:10;;;;;;;1.33;0.93;;;;;;;;;;4995540;28;20454;-89
2021/05/27 08:26:36;;;;;;;1.00;0.90;;;;;;;;;;4996311;28;20503;-87
2021/05/27 08:29:04;;;;;;;2.77;1.20;;;14.40;99.80;;;;;;4992132;28;20500;-90
2021/05/27 08:31:31;;;;;;;1.30;1.00;;;;;;;;;;4989523;28;20456;-87
2021/05/27 08:33:57;;;;;;;0.93;0.87;;;;;;;;;;4993938;28;20479;-90
2021/05/27 08:36:24;;;;;;;2.90;1.30;;;;;;;;;;4986823;28;20438;-93
2021/05/27 08:38:51;;;;;;;1.37;0.93;;;;;;;;;;4997078;28;20454;-86
2021/05/27 08:41:19;;;;;;;1.40;1.10;;;13.00;99.90;;;;;;4995806;28;20441;-90
2021/05/27 08:43:47;;;;;;;1.27;1.10;;;13.60;99.90;;;;;;5004905;28;20441;-91
2021/05/27 08:46:14;;;;;;;1.97;1.20;;;14.30;99.90;;;;;;5001320;28;20455;-93
2021/05/27 08:48:42;;;;;;;3.17;1.17;;;14.90;99.90;;;;;;4997416;28;20488;-95
2021/05/27 08:51:09;;;;;;;1.63;1.00;;;;;;;;;;5000593;28;20580;-89
2021/05/27 08:53:35;;;;;;;2.50;1.07;;;;;;;;;;5000389;28;20453;-92
2021/05/27 08:56:02;;;;;;;2.60;1.20;;;;;;;;;;5005519;28;20441;-92
2021/05/27 08:58:29;;;;;;;2.17;1.50;;;;;;;;;;4998155;28;20964;-93
2021/05/27 09:00:55;;;;;;;1.20;1.10;;;;;;;;;;4990552;28;20461;-89
2021/05/27 09:03:23;;;;;;;1.17;0.93;;;;;;;;;;4999838;28;20838;-92
2021/05/27 09:05:59;;;;;;;1.23;0.90;;;14.70;99.90;;;;;;4996836;28;20426;-92
2021/05/27 09:08:30;;;;;;;1.03;0.80;;;14.20;99.90;;;;;;4988296;28;20488;-85
2021/05/27 09:11:01;;;;;;;1.53;0.90;;;13.30;99.90;;;;;;4998285;28;20456;-89
2021/05/27 09:13:28;;;;;;;1.70;1.00;;;;;;;;;;4994336;28;20461;-87
2021/05/27 09:16:05;;;;;;;1.17;1.07;;;14.20;99.90;;;;;;4998425;28;20953;-89
2021/05/27 09:18:34;;;;;;;1.10;1.00;;;14.40;99.90;;;;;;4990089;28;20441;-93
2021/05/27 09:21:01;;;;;;;2.00;1.13;;;;;;;;;;4997462;28;20464;-93
2021/05/27 09:23:27;;;;;;;2.10;1.10;;;;;;;;;;4998461;28;20453;-91
2021/05/27 09:25:58;;;;;;;1.03;0.93;;;16.40;97.10;;;;;;4998359;28;20977;-92
2021/05/27 09:28:27;;;;;;;2.57;1.20;;;16.30;96.30;;;;;;4996991;28;20485;-93
2021/05/27 09:30:56;;;;;;;1.50;1.00;;;16.20;96.60;;;;;;4999976;28;20524;-92
2021/05/27 09:33:30;;;;;;;4.10;1.53;;;16.00;99.90;;;;;;4995005;28;20457;-92
2021/05/27 09:36:04;;;;;;;1.97;1.00;;;14.80;99.90;;;;;;4986590;28;20449;-88
2021/05/27 09:38:31;;;;;;;1.47;0.90;;;;;;;;;;4996492;28;20461;-92
2021/05/27 09:40:58;;;;;;;1.97;1.00;;;;;;;;;;4992701;28;20457;-86
2021/05/27 09:43:26;;;;;;;2.33;1.50;;;14.40;99.40;;;;;;4997471;28;20496;-91
2021/05/27 09:46:02;;;;;;;3.73;1.27;;;14.40;98.20;;;;;;4996850;28;20453;-90
2021/05/27 09:48:29;;;;;;;1.27;0.87;;;;;;;;;;4992469;28;20489;-89
2021/05/27 09:50:56;;;;;;;1.43;1.00;;;;;;;;;;4992305;28;20459;-88
2021/05/27 09:53:26;;;;;;;2.70;0.93;;;14.30;97.40;;;;;;4997510;28;20832;-89
2021/05/27 09:55:53;;;;;;;1.67;1.10;;;;;;;;;;4993478;28;20908;-93
2021/05/27 09:58:20;;;;;;;1.93;1.40;;;;;;;;;;4997742;28;20492;-91
2021/05/27 10:00:48;;;;;;;1.30;0.90;;;14.30;99.90;;;;;;5000377;28;20445;-94
2021/05/27 10:03:35;;;;;;;1.17;1.07;;;14.50;99.90;;;;;;4994759;28;20464;-92
2021/05/27 10:06:04;;;;;;;2.20;1.13;;;14.50;99.90;;;;;;4996418;28;20451;-91
2021/05/27 10:08:48;;;;;;;2.40;0.90;;;15.40;98.20;;;;;;4996964;28;20625;-88
2021/05/27 10:11:15;;;;;;;1.00;0.70;;;;;;;;;;4993096;28;20449;-92
2021/05/27 10:13:42;;;;;;;1.97;1.10;;;14.90;98.40;;;;;;4997948;28;21015;-91
2021/05/27 10:16:12;;;;;;;1.60;0.97;;;14.90;99.90;;;;;;4976573;28;20466;-92
2021/05/27 10:18:40;;;;;;;1.10;0.80;;;14.40;98.40;;;;;;4973465;28;20449;-93
2021/05/27 10:21:07;;;;;;;1.17;1.03;;;;;;;;;;4972843;28;20478;-91
2021/05/27 10:23:34;;;;;;;1.40;1.00;;;13.90;98.00;;;;;;4977340;28;20840;-90
2021/05/27 10:26:01;;;;;;;1.50;0.83;;;;;;;;;;4959781;28;20467;-88
2021/05/27 10:28:28;;;;;;;1.83;0.90;;;;;;;;;;4958736;29;21053;-89
2021/05/27 10:30:54;;;;;;;1.00;0.70;;;;;;;;;;4957349;29;20459;-91
2021/05/27 10:33:21;;;;;;;1.20;0.70;;;;;;;;;;4956344;29;20912;-89
2021/05/27 10:35:56;;;;;;;1.23;0.90;;;13.90;99.90;;;;;;4956983;29;20455;-91
2021/05/27 10:38:59;;;;;;;2.60;0.93;;;14.10;98.70;;;;;;4957537;29;20462;-92
2021/05/27 10:41:55;;;;;;;1.37;0.93;;;14.20;98.00;;;;;;4967388;28;21000;-94
2021/05/27 10:44:22;;;;;;;1.70;0.93;;;;;;;;;;4977541;28;20824;-92
2021/05/27 10:47:16;;;;;;;1.17;0.87;;;14.00;97.40;;;;;;4977941;28;20450;-95
2021/05/27 10:49:54;;;;;;;1.63;1.00;;;14.10;97.90;;;;;;4978055;28;20854;-90
2021/05/27 10:52:43;;;;;;;2.10;1.10;;;14.10;98.20;;;;;;4976414;28;20450;-92
2021/05/27 10:55:55;;;;;;;1.47;1.17;;;14.00;99.20;;;;;;4972419;28;20454;-92
2021/05/27 10:59:11;;;;;;;1.30;1.03;;;14.00;99.70;;;;;;4975054;28;20450;-93
2021/05/27 11:01:55;;;;;;;2.30;1.20;;;13.90;99.90;;;;;;4975930;28;20514;-88
2021/05/27 11:04:32;;;;;;;2.00;1.23;;;13.80;99.90;;;;;;4975082;28;20476;-88
2021/05/27 11:07:18;;;;;;;2.23;1.20;;;13.80;99.90;;;;;;4976399;28;20809;-87
2021/05/27 11:09:46;;;;;;;1.00;0.80;;;;;;;;;;4972457;28;20490;-88
2021/05/27 11:12:17;;;;;;;1.97;1.40;;;14.20;99.90;;;;;;4974429;28;20512;-88
2021/05/27 11:14:45;;;;;;;1.10;0.90;;;14.40;99.50;;;;;;4974472;28;20465;-85
2021/05/27 11:17:21;;;;;;;1.30;0.93;;;14.50;99.20;;;;;;4974299;28;20458;-88
2021/05/27 11:19:52;;;;;;;1.00;0.90;;;14.60;99.50;;;;;;4968569;28;20465;-91
2021/05/27 11:22:55;;;;;;;1.43;1.30;;;15.00;99.80;;;;;;4978984;28;20501;-91
2021/05/27 11:25:40;;;;;;;3.30;1.10;;;15.10;98.00;;;;;;4969615;28;20580;-88
2021/05/27 11:28:27;;;;;;;1.87;1.10;;;15.00;98.00;;;;;;4985446;28;20458;-91
2021/05/27 11:30:56;;;;;;;3.53;1.40;;;15.40;99.30;;;;;;4988072;28;20454;-91
2021/05/27 11:33:35;;;;;;;1.67;1.40;;;16.30;98.70;;;;;;4977919;28;20485;-89
2021/05/27 11:36:18;;;;;;;2.50;1.00;;;16.20;96.50;;;;;;4969065;28;20511;-89
2021/05/27 11:38:46;;;;;;;1.30;1.20;;;15.60;96.70;;;;;;4977020;28;20508;-91
2021/05/27 11:41:17;;;;;;;1.07;0.97;;;15.30;97.10;;;;;;4974268;28;20446;-88
2021/05/27 11:43:45;;;;;;;1.23;1.07;;;14.90;97.90;;;;;;4971859;28;20454;-90
2021/05/27 11:46:15;;;;;;;2.40;1.23;;;14.80;98.10;;;;;;4974607;28;20481;-88
2021/05/27 11:48:57;;;;;;;1.83;1.00;;;14.80;97.50;;;;;;4971132;28;20907;-93
2021/05/27 11:51:29;;;;;;;2.33;1.30;;;14.60;98.60;;;;;;4974582;28;20455;-93
2021/05/27 11:53:58;;;;;;;1.67;1.10;;;;;;;;;;4973241;28;20454;-91
2021/05/27 11:56:29;;;;;;;1.50;1.10;;;;;;;;;;4982328;28;21042;-92
2021/05/27 11:58:56;;;;;;;1.10;1.00;;;;;;;;;;4976952;28;21009;-91
2021/05/27 12:01:24;;;;;;;2.00;0.80;;;14.90;99.30;;;;;;4974950;28;20442;-93
2021/05/27 12:04:02;;;;;;;1.10;0.90;;;;;;;;;;4976700;28;20449;-92
2021/05/27 12:06:29;;;;;;;1.17;0.90;;;;;;;;;;4993408;28;20445;-89
2021/05/27 12:08:56;;;;;;;1.70;0.83;;;;;;;;;;4993170;28;20456;-90
2021/05/27 12:11:29;;;;;;;1.20;1.03;;;;;;;;;;4993782;28;20552;-92
2021/05/27 12:13:59;;;;;;;3.03;0.90;;;16.70;97.90;;;;;;4995195;28;20825;-88
2021/05/27 12:16:30;;;;;;;1.57;0.80;;;;;;;;;;5003901;28;20467;-90
2021/05/27 12:19:01;;;;;;;1.07;0.97;;;16.00;95.00;;;;;;4993689;28;20485;-92
2021/05/27 12:21:28;;;;;;;1.57;1.10;;;;;;;;;;4997729;28;20808;-92
2021/05/27 12:23:55;;;;;;;1.10;0.93;;;;;;;;;;4994970;28;20468;-91
2021/05/27 12:26:24;;;;;;;1.70;0.80;;;;;;;;;;4997827;28;20480;-91
2021/05/27 12:28:53;;;;;;;1.27;1.17;;;16.40;95.30;;;;;;4994912;28;20453;-90
2021/05/27 12:31:19;;;;;;;1.70;0.90;;;;;;;;;;4997615;28;20457;-92
2021/05/27 12:33:46;;;;;;;1.27;1.00;;;;;;;;;;4995579;28;20437;-92
2021/05/27 12:36:14;;;;;;;1.10;1.00;;;;;;;;;;5001296;28;20444;-92
2021/05/27 12:38:45;;;;;;;2.47;1.10;;;15.90;96.70;;;;;;4998947;28;20571;-93
2021/05/27 12:41:12;;;;;;;2.23;1.07;;;;;;;;;;4976053;28;20457;-91
2021/05/27 12:43:41;;;;;;;2.40;1.10;;;15.50;96.40;;;;;;4976282;28;20524;-86
2021/05/27 12:46:09;;;;;;;1.23;0.90;;;15.60;97.20;;;;;;4976267;28;20920;-92
2021/05/27 12:48:47;;;;;;;4.73;1.70;;;16.40;97.50;;;;;;4972764;28;20538;-91
2021/05/27 12:51:16;;;;;;;0.97;0.97;;;16.40;95.60;;;;;;4983897;28;20504;-90
2021/05/27 12:53:50;;;;;;;1.20;0.93;;;16.10;95.20;;;;;;4981563;28;20454;-93
2021/05/27 12:56:20;;;;;;;1.10;1.00;;;16.60;95.60;;;;;;4977459;28;20507;-94
2021/05/27 12:58:48;;;;;;;0.60;0.60;;;16.90;93.50;;;;;;4969702;28;20560;-87
2021/05/27 13:01:15;;;;;;;1.20;0.90;;;17.20;94.20;;;;;;4977976;28;20458;-91
2021/05/27 13:03:47;;;;;;;1.33;0.77;;;17.90;92.30;;;;;;4977563;28;20450;-86
2021/05/27 13:06:16;;;;;;;1.03;0.93;;;17.20;91.90;;;;;;4978190;28;20454;-91
2021/05/27 13:08:43;;;;;;;0.93;0.70;;;;;;;;;;4975022;28;20481;-91
2021/05/27 13:11:24;;;;;;;1.10;1.00;;;15.20;93.00;;;;;;4974167;28;20454;-93
2021/05/27 13:13:52;;;;;;;0.90;0.77;;;;;;;;;;4995044;28;20437;-91
2021/05/27 13:16:40;;;;;;;1.00;0.83;;;15.60;94.80;;;;;;4994746;28;20453;-93
2021/05/27 13:19:10;;;;;;;0.83;0.77;;;15.40;95.30;;;;;;4994625;28;20536;-89
2021/05/27 13:21:48;;;;;;;1.80;0.90;;;16.40;99.90;;;;;;4996005;28;20445;-93
2021/05/27 13:24:18;;;;;;;3.60;1.03;;;17.00;94.40;;;;;;4987387;28;20492;-93
2021/05/27 13:26:47;;;;;;;1.67;0.90;;;;;;;;;;4992963;28;20457;-88
2021/05/27 13:29:13;;;;;;;1.03;0.90;;;;;;;;;;4994781;28;20457;-86
2021/05/27 13:31:42;;;;;;;1.90;1.20;;;18.10;91.80;;;;;;4994926;28;20948;-92
2021/05/27 13:34:09;;;;;;;1.27;0.83;;;;;;;;;;4990189;28;20445;-89
2021/05/27 13:36:41;;;;;;;0.80;0.77;;;18.30;92.80;;;;;;4995924;28;20445;-91
2021/05/27 13:39:22;;;;;;;0.77;0.67;;;18.10;91.00;;;;;;4994801;28;20500;-87
2021/05/27 13:43:43;;;;;;;0.77;0.70;;;17.40;94.40;;;;;;5087305;28;20584;-90
2021/05/27 13:46:10;;;;;;;0.90;0.60;;;;;;;;;;5091722;28;20924;-92
2021/05/27 13:48:36;;;;;;;2.50;1.00;;;;;;;;;;5091501;28;21005;-90
2021/05/27 13:51:03;;;;;;;3.00;1.07;;;16.80;98.10;;;;;;5092174;28;20474;-92
2021/05/27 13:53:30;;;;;;;0.83;0.70;;;;;;;;;;5090775;28;20804;-90
2021/05/27 13:55:58;;;;;;;2.90;0.80;;;;;;;;;;5091244;28;20474;-91
2021/05/27 13:58:25;;;;;;;1.40;1.00;;;;;;;;;;5090456;28;20445;-90
2021/05/27 14:00:54;;;;;;;2.20;0.67;;;16.20;99.90;;;;;;5089586;28;20444;-90
2021/05/27 14:03:20;;;;;;;0.83;0.73;;;;;;;;;;5088873;28;21041;-90
2021/05/27 14:05:47;;;;;;;3.60;1.00;;;;;;;;;;5090177;28;20476;-88
2021/05/27 14:08:17;;;;;;;1.63;0.83;;;16.00;94.10;;;;;;5090228;28;20456;-90
2021/05/27 14:10:43;;;;;;;2.27;1.00;;;;;;;;;;5089437;28;20457;-90
2021/05/27 14:13:10;;;;;;;1.30;0.87;;;;;;;;;;5070788;28;20445;-90
2021/05/27 14:15:36;;;;;;;1.60;0.80;;;;;;;;;;5070245;28;20464;-91
2021/05/27 14:18:04;;;;;;;0.73;0.60;;;;;;;;;;5069405;28;20548;-90
2021/05/27 14:20:31;;;;;;;1.30;1.00;;;;;;;;;;5070529;28;20438;-88
2021/05/27 14:22:58;;;;;;;0.90;0.80;;;;;;;;;;5074930;28;20485;-88
2021/05/27 14:25:25;;;;;;;2.00;0.93;;;;;;;;;;5070008;28;20446;-89
2021/05/27 14:27:51;;;;;;;3.70;1.00;;;;;;;;;;5070217;28;20483;-91
2021/05/27 14:30:18;;;;;;;0.80;0.70;;;;;;;;;;5072587;28;20515;-87
2021/05/27 14:32:45;;;;;;;3.27;1.27;;;;;;;;;;5075412;28;20446;-90
2021/05/27 14:35:13;;;;;;;1.13;0.90;;;15.10;95.20;;;;;;5070101;28;20842;-90
2021/05/27 14:37:39;;;;;;;1.00;0.90;;;;;;;;;;5069422;28;20446;-85
2021/05/27 14:40:07;;;;;;;3.60;0.90;;;15.20;96.00;;;;;;5069238;28;20508;-87
2021/05/27 14:42:34;;;;;;;4.00;0.87;;;;;;;;;;5069062;28;20485;-92
2021/05/27 14:45:00;;;;;;;0.90;0.80;;;;;;;;;;5076457;28;20507;-88
2021/05/27 14:47:27;;;;;;;2.00;0.83;;;;;;;;;;5082859;28;20483;-89
2021/05/27 14:49:54;;;;;;;0.70;0.70;;;;;;;;;;5071456;28;20449;-86
2021/05/27 14:52:21;;;;;;;1.07;0.97;;;16.10;99.90;;;;;;5070075;28;20442;-91
2021/05/27 14:54:48;;;;;;;1.80;0.50;;;;;;;;;;5057366;28;20452;-89
2021/05/27 14:57:14;;;;;;;1.50;0.60;;;;;;;;;;5055502;28;20450;-88
2021/05/27 14:59:41;;;;;;;1.20;1.07;;;;;;;;;;5057301;28;20974;-88
2021/05/27 15:02:08;;;;;;;1.03;0.93;;;;;;;;;;5054679;28;20899;-85
2021/05/27 15:04:35;;;;;;;1.07;0.80;;;;;;;;;;5054265;28;20450;-89
2021/05/27 15:07:02;;;;;;;2.10;0.80;;;;;;;;;;5055809;28;20805;-88
2021/05/27 15:09:30;;;;;;;0.97;0.87;;;15.00;95.60;;;;;;5055640;28;20531;-88
2021/05/27 15:11:56;;;;;;;3.53;0.90;;;;;;;;;;5055544;28;20553;-86
2021/05/27 15:14:23;;;;;;;1.87;0.80;;;;;;;;;;5055021;28;20451;-90
2021/05/27 15:16:50;;;;;;;1.17;0.90;;;;;;;;;;5054833;28;20922;-89
2021/05/27 15:19:16;;;;;;;1.90;0.67;;;;;;;;;;5053794;28;20462;-86
2021/05/27 15:21:43;;;;;;;4.80;1.07;;;;;;;;;;5054740;28;20482;-88
2021/05/27 15:24:11;;;;;;;2.40;1.97;;;;;;;;;;5055421;28;20815;-91
2021/05/27 15:26:40;;;;;;;1.27;0.87;;;14.80;96.50;;;;;;5054695;28;20489;-86
2021/05/27 15:29:17;;;;;;;0.83;0.70;;;14.80;96.90;;;;;;5054726;28;20461;-88
2021/05/27 15:31:44;;;;;;;1.73;1.13;;;14.50;99.90;;;;;;5054784;28;20450;-83
2021/05/27 15:34:13;;;;;;;0.70;0.70;;;;;;;;;;5053306;28;20454;-85
2021/05/27 15:36:39;;;;;;;1.27;1.07;;;;;;;;;;5054492;28;20946;-84
2021/05/27 15:39:07;;;;;;;1.10;0.90;;;14.90;96.90;;;;;;5054870;28;20597;-87
2021/05/27 15:41:34;;;;;;;1.07;0.97;;;;;;;;;;5054382;28;20504;-86
2021/05/27 15:44:01;;;;;;;2.60;1.00;;;;;;;;;;5054726;28;20450;-90
2021/05/27 15:46:28;;;;;;;3.07;0.97;;;;;;;;;;5055156;28;21004;-87
2021/05/27 15:48:55;;;;;;;5.67;1.03;;;;;;;;;;5055717;28;20450;-89
2021/05/27 15:51:21;;;;;;;2.60;0.93;;;;;;;;;;5054698;28;20457;-90
2021/05/27 15:53:48;;;;;;;1.90;1.00;;;;;;;;;;5059982;28;20984;-89
2021/05/27 15:56:14;;;;;;;1.50;0.93;;;;;;;;;;5054594;28;20473;-88
2021/05/27 15:58:41;;;;;;;2.10;1.10;;;;;;;;;;5054475;28;20434;-89
2021/05/27 16:01:08;;;;;;;2.23;1.23;;;15.40;95.30;;;;;;5054995;28;20548;-89
2021/05/27 16:03:35;;;;;;;2.07;0.93;;;;;;;;;;5055743;28;20551;-93
2021/05/27 16:06:02;;;;;;;2.30;1.20;;;;;;;;;;5054724;28;20989;-92
2021/05/27 16:08:29;;;;;;;0.90;0.90;;;;;;;;;;5058119;28;20530;-88
2021/05/27 16:10:56;;;;;;;3.90;1.23;;;;;;;;;;5054939;28;20481;-90
2021/05/27 16:13:22;;;;;;;1.37;1.07;;;;;;;;;;5056663;28;20454;-92
2021/05/27 16:15:49;;;;;;;0.80;0.80;;;;;;;;;;5055067;28;20505;-91
2021/05/27 16:18:17;;;;;;;1.10;0.90;;;16.00;95.40;;;;;;5051933;28;20446;-88
2021/05/27 16:20:44;;;;;;;1.20;0.87;;;;;;;;;;5051913;28;20878;-87
2021/05/27 16:23:10;;;;;;;1.07;0.97;;;;;;;;;;5053611;28;20498;-91
2021/05/27 16:25:38;;;;;;;0.70;0.70;;;16.40;99.90;;;;;;5054427;28;20458;-85
2021/05/27 16:28:06;;;;;;;1.70;1.00;;;15.60;95.00;;;;;;5053519;28;20461;-89
2021/05/27 16:30:33;;;;;;;1.10;0.80;;;;;;;;;;5053633;28;20809;-87
2021/05/27 16:33:01;;;;;;;1.00;1.00;;;;;;;;;;5052965;28;20458;-89
2021/05/27 16:35:35;;;;;;;1.83;1.20;;;15.70;95.30;;;;;;5053919;28;20438;-89
2021/05/27 16:38:17;;;;;;;3.53;0.90;;;;;;;;;;5054361;28;20457;-92
2021/05/27 16:40:43;;;;;;;4.07;1.60;;;;;;;;;;5053644;28;20443;-91
2021/05/27 16:43:10;;;;;;;2.50;1.30;;;;;;;;;;5054191;28;20585;-91
2021/05/27 16:45:38;;;;;;;2.77;0.93;;;;;;;;;;5054185;28;20451;-88
2021/05/27 16:48:07;;;;;;;2.60;1.27;;;15.50;96.60;;;;;;5056332;28;20485;-91
2021/05/27 16:50:37;;;;;;;1.20;0.93;;;15.60;99.90;;;;;;5061902;28;20446;-90
2021/05/27 16:53:04;;;;;;;1.60;1.27;;;15.30;96.30;;;;;;5054751;28;20661;-90
2021/05/27 16:55:31;;;;;;;1.50;1.17;;;;;;;;;;5053766;28;20542;-86
2021/05/27 16:57:58;;;;;;;1.77;1.20;;;15.20;96.90;;;;;;5053748;28;20451;-89
2021/05/27 17:00:25;;;;;;;1.17;1.10;;;;;;;;;;5053550;28;20520;-91
2021/05/27 17:02:52;;;;;;;1.87;0.83;;;;;;;;;;5052788;28;20494;-88
2021/05/27 17:05:19;;;;;;;1.20;0.70;;;;;;;;;;5053159;28;20461;-89
2021/05/27 17:07:47;;;;;;;1.53;0.80;;;;;;;;;;5052968;28;20524;-91
2021/05/27 17:10:14;;;;;;;1.47;1.00;;;;;;;;;;5054923;28;20486;-89
2021/05/27 17:12:40;;;;;;;1.20;1.00;;;;;;;;;;5052862;28;20832;-89
2021/05/27 17:15:09;;;;;;;2.80;1.27;;;14.80;99.90;;;;;;5053374;28;20805;-91
2021/05/27 17:17:35;;;;;;;2.50;1.93;;;;;;;;;;5052607;28;20458;-89
2021/05/27 17:20:02;;;;;;;0.93;0.83;;;;;;;;;;5050271;28;20454;-87
2021/05/27 17:22:29;;;;;;;1.80;1.33;;;;;;;;;;5054889;28;20489;-88
2021/05/27 17:24:56;;;;;;;1.63;1.20;;;14.30;98.80;;;;;;5054245;28;20831;-88
2021/05/27 17:27:22;;;;;;;3.83;1.50;;;;;;;;;;5052905;28;20473;-89
2021/05/27 17:29:49;;;;;;;1.23;1.10;;;;;;;;;;5052704;28;20446;-90
2021/05/27 17:32:16;;;;;;;0.90;0.90;;;;;;;;;;5052478;28;20889;-89
2021/05/27 17:34:42;;;;;;;1.90;0.90;;;;;;;;;;5051750;28;20450;-93
2021/05/27 17:37:09;;;;;;;1.00;0.90;;;;;;;;;;5053729;28;20545;-91
2021/05/27 17:39:36;;;;;;;1.07;0.90;;;;;;;;;;5055783;28;20511;-92
2021/05/27 17:42:04;;;;;;;1.67;0.90;;;14.50;99.80;;;;;;5053592;28;20500;-91
2021/05/27 17:44:32;;;;;;;1.87;0.93;;;;;;;;;;5053183;28;20470;-92
2021/05/27 17:46:59;;;;;;;1.60;1.27;;;;;;;;;;5055746;28;20756;-93
2021/05/27 17:49:26;;;;;;;1.23;1.00;;;;;;;;;;5052480;28;20530;-91
2021/05/27 17:51:52;;;;;;;2.10;1.03;;;;;;;;;;5055399;28;20458;-90
2021/05/27 17:54:19;;;;;;;2.10;1.10;;;;;;;;;;5053344;28;20438;-89
2021/05/27 17:56:46;;;;;;;1.57;1.47;;;;;;;;;;5056477;28;20457;-89
2021/05/27 17:59:13;;;;;;;3.50;1.30;;;13.50;99.90;;;;;;5069430;28;20469;-91
2021/05/27 18:01:40;;;;;;;2.63;1.50;;;;;;;;;;5055900;28;20484;-91
2021/05/27 18:04:06;;;;;;;2.03;1.53;;;;;;;;;;5052086;28;20459;-90
2021/05/27 18:06:33;;;;;;;2.73;1.60;;;;;;;;;;5050020;28;20446;-89
2021/05/27 18:09:00;;;;;;;1.97;1.40;;;;;;;;;;5052180;28;21268;-88
2021/05/27 18:11:27;;;;;;;1.70;1.60;;;;;;;;;;5052404;28;20474;-90
2021/05/27 18:13:56;;;;;;;2.80;1.70;;;12.60;99.90;;;;;;5053860;28;20903;-92
2021/05/27 18:16:24;;;;;;;2.63;1.73;;;;;;;;;;5050123;28;20808;-92
2021/05/27 18:18:51;;;;;;;3.00;1.93;;;;;;;;;;5052234;28;20454;-91
2021/05/27 18:21:17;;;;;;;3.10;1.70;;;;;;;;;;5051214;28;20466;-90
2021/05/27 18:23:44;;;;;;;2.20;1.60;;;;;;;;;;5052968;28;20485;-93
2021/05/27 18:26:14;;;;;;;2.10;1.87;;;12.10;99.90;;;;;;5053109;28;20948;-92
2021/05/27 18:28:40;;;;;;;3.63;1.70;;;;;;;;;;5049885;28;20466;-91
2021/05/27 18:31:08;;;;;;;1.73;1.63;;;12.20;99.90;;;;;;5058879;28;20495;-90
2021/05/27 18:33:35;;;;;;;1.97;1.60;;;12.10;99.90;;;;;;5054397;28;20450;-91
2021/05/27 18:36:02;;;;;;;2.03;1.73;;;;;;;;;;5053991;28;20813;-91
2021/05/27 18:38:29;;;;;;;1.90;1.80;;;;;;;;;;5055989;28;20472;-89
2021/05/27 18:40:55;;;;;;;2.37;2.13;;;;;;;;;;5056189;28;20926;-90
2021/05/27 18:43:23;;;;;;;3.00;1.93;;;;;;;;;;5055831;28;20510;-88
2021/05/27 18:45:50;;;;;;;2.20;2.00;;;;;;;;;;5056159;28;20517;-91
2021/05/27 18:48:17;;;;;;;1.90;1.80;;;11.80;99.90;;;;;;5056144;28;20450;-91
2021/05/27 18:50:46;;;;;;;2.47;2.27;;;11.70;99.90;;;;;;5055819;28;20972;-89
2021/05/27 18:53:15;;;;;;;2.03;1.83;;;;;;;;;;5059424;28;20454;-89
2021/05/27 18:55:41;;;;;;;3.20;2.70;;;;;;;;;;5060664;28;20462;-90
2021/05/27 18:58:08;;;;;;;2.80;2.20;;;;;;;;;;5056258;28;20446;-90
2021/05/27 19:00:35;;;;;;;2.50;2.30;;;;;;;;;;5055408;28;20972;-89
2021/05/27 19:03:01;;;;;;;2.43;2.20;;;;;;;;;;5054826;28;20598;-88
2021/05/27 19:05:29;;;;;;;2.40;2.10;;;11.40;99.90;;;;;;5056781;28;20941;-91
2021/05/27 19:07:57;;;;;;;8.37;2.30;;;11.40;99.90;;;;;;5057195;28;20980;-89
2021/05/27 19:10:24;;;;;;;2.10;2.00;;;;;;;;;;5056316;28;20957;-91
2021/05/27 19:12:51;;;;;;;1.70;1.60;;;;;;;;;;5054263;28;20953;-89
2021/05/27 19:15:19;;;;;;;2.07;1.87;;;;;;;;;;5058682;28;20455;-90
2021/05/27 19:17:46;;;;;;;1.90;1.73;;;;;;;;;;5055306;28;20484;-90
2021/05/27 19:20:16;;;;;;;2.27;1.83;;;11.20;99.90;;;;;;5056124;28;20545;-92